Flight Track Log - Related Links

Times and Time Zones

All times are in EDT time to prevent confusion due to time zone crossing. See the GLA34K flight status page for this flight to view local times or setup timezone preferences in your user account.

Time Position Orientation Groundspeed Altitude Reporting Facility
EDT Latitude Longitude Course Direction KTS MPH feet Rate Location/Type
Fri 02:02:06 PM 46.6442 -102.7967 184° South 189 217 7,900  Level Minneapolis Center
Fri 02:03:00 PM 46.3284 -102.9431 187° South  Level Estimated
Fri 02:03:07 PM 46.5969 -102.7983 181° South 196 226 9,100  Level Minneapolis Center
Fri 02:04:00 PM 46.2503 -102.9664 183° South  Level Estimated
Fri 02:04:10 PM 46.5192 -102.8031 182° South 218 251 10,800  Level Minneapolis Center
Fri 02:05:00 PM 46.1772 -102.9200 156° South  Level FlightAware Approximate
Fri 02:05:12 PM 46.4489 -102.8117 185° South 239 275 12,200  Level Minneapolis Center
Fri 02:06:00 PM 46.0992 -102.9441 184° South  Level Estimated
Fri 02:06:14 PM 46.3800 -102.8194 184° South 247 284 13,500  Level Minneapolis Center
Fri 02:07:16 PM 46.3117 -102.8253 183° South 247 284 14,600 1,210 Climbing Minneapolis Center
Fri 02:08:18 PM 46.2294 -102.8322 183° South 246 283 16,000 1,210 Climbing Minneapolis Center
Fri 02:09:20 PM 46.1622 -102.8347 181° South 245 282 17,100 1,016 Climbing Minneapolis Center
Fri 02:10:22 PM 46.0964 -102.8367 181° South 241 277 18,100 919 Climbing Minneapolis Center
Fri 02:11:24 PM 46.0308 -102.8372 180° South 237 273 19,000 816 Climbing Minneapolis Center
Fri 02:12:27 PM 45.9656 -102.8394 181° South 236 272 19,800 768 Climbing Minneapolis Center
Fri 02:13:29 PM 45.8969 -102.8414 181° South 242 278 20,600 871 Climbing Minneapolis Center
Fri 02:14:31 PM 45.8167 -102.8408 180° South 242 278 21,600 706 Climbing Minneapolis Center
Fri 02:15:45 PM 45.7492 -102.8392 179° South 242 278 22,200 529 Climbing Minneapolis Center
Fri 02:16:47 PM 45.6639 -102.8392 180° South 252 290 22,800 532 Climbing Minneapolis Center
Fri 02:17:49 PM 45.6056 -102.8394 180° South 257 296 23,300 576 Climbing Minneapolis Center
Fri 02:18:52 PM 45.5111 -102.8394 180° South 260 299 24,000 576 Climbing Minneapolis Center
Fri 02:19:54 PM 45.4392 -102.8381 179° South 260 299 24,500 484 Climbing Minneapolis Center
Fri 02:20:56 PM 45.3664 -102.8389 180° South 261 300 25,000 242 Climbing Minneapolis Center
Fri 02:21:58 PM 45.2906 -102.8386 180° South 268 308 25,000  Level Minneapolis Center
Fri 02:23:00 PM 45.1950 -102.8403 181° South 281 323 25,000  Level Minneapolis Center
Fri 02:24:02 PM 45.1131 -102.8417 181° South 290 334 25,000  Level Minneapolis Center
Fri 02:25:04 PM 45.0325 -102.8472 183° South 291 335 25,000  Level Minneapolis Center
Fri 02:26:06 PM 44.9536 -102.8592 186° South 288 331 25,000  Level Minneapolis Center
Fri 02:27:15 PM 44.8572 -102.8717 185° South 285 328 25,000  Level Denver Center
Fri 02:28:17 PM 44.7789 -102.8831 186° South 285 328 25,000  Level Denver Center
Fri 02:29:19 PM 44.6981 -102.8953 186° South 285 328 25,000  Level Denver Center
Fri 02:30:21 PM 44.6211 -102.9047 185° South 285 328 25,000  Level Denver Center
Fri 02:31:23 PM 44.5264 -102.9194 186° South 285 328 25,000  Level Denver Center
Fri 02:32:25 PM 44.4467 -102.9306 186° South 285 328 25,000  Level Denver Center
Fri 02:33:27 PM 44.3689 -102.9414 186° South 286 329 25,000  Level Denver Center
Fri 02:34:29 PM 44.2897 -102.9547 187° South 287 330 25,000  Level Denver Center
Fri 02:35:31 PM 44.2111 -102.9697 188° South 287 330 25,000  Level Denver Center
Fri 02:36:33 PM 44.1306 -102.9831 187° South 288 331 25,000  Level Denver Center
Fri 02:37:36 PM 44.0417 -102.9997 188° South 288 331 25,000  Level Denver Center
Fri 02:38:38 PM 43.9656 -103.0131 187° South 288 331 25,000  Level Denver Center
Fri 02:39:40 PM 43.8767 -103.0306 188° South 288 331 25,000  Level Denver Center
Fri 02:40:42 PM 43.8017 -103.0450 188° South 285 328 25,000  Level Denver Center
Fri 02:41:44 PM 43.7117 -103.0614 187° South 290 334 25,000  Level Denver Center
Fri 02:42:46 PM 43.6342 -103.0756 188° South 293 337 25,000  Level Denver Center
Fri 02:43:48 PM 43.5453 -103.0942 189° South 291 335 25,000  Level Denver Center
Fri 02:44:50 PM 43.4683 -103.1094 188° South 291 335 25,000  Level Denver Center
Fri 02:45:52 PM 43.4039 -103.1225 188° South 293 337 25,000  Level Denver Center
Fri 02:47:06 PM 43.3014 -103.1444 189° South 292 336 25,000  Level Denver Center
Fri 02:48:09 PM 43.1986 -103.1661 189° South 292 336 25,000  Level Denver Center
Fri 02:49:11 PM 43.1225 -103.1808 188° South 290 334 25,000  Level Denver Center
Fri 02:50:13 PM 43.0319 -103.1983 188° South 292 336 25,000  Level Denver Center
Fri 02:51:15 PM 42.9550 -103.2150 189° South 292 336 25,000  Level Denver Center
Fri 02:52:17 PM 42.8653 -103.2317 188° South 291 335 25,000  Level Denver Center
Fri 02:53:19 PM 42.7875 -103.2478 189° South 293 337 25,000  Level Denver Center
Fri 02:54:21 PM 42.7236 -103.2603 188° South 293 337 25,000  Level Denver Center
Fri 02:55:23 PM 42.6200 -103.2817 189° South 293 337 25,000  Level Denver Center
Fri 02:56:25 PM 42.5297 -103.3003 189° South 293 337 25,000  Level Denver Center
Fri 02:57:40 PM 42.4525 -103.3164 189° South 293 337 25,000  Level Denver Center
Fri 02:58:42 PM 42.3494 -103.3397 189° South 294 338 25,000  Level Denver Center
Fri 02:59:56 PM 42.2725 -103.3611 192° South 294 338 25,000  Level Denver Center
Fri 03:00:59 PM 42.1703 -103.3886 191° South 293 337 25,000  Level Denver Center
Fri 03:02:01 PM 42.0944 -103.4144 194° South 292 336 25,000  Level Denver Center
Fri 03:03:02 PM 42.0183 -103.4425 195° South 293 337 25,000  Level Denver Center
Fri 03:04:05 PM 41.9294 -103.4733 194° South 295 339 25,000  Level Denver Center
Fri 03:05:07 PM 41.8414 -103.5000 193° South 292 336 25,000  Level Denver Center
Fri 03:06:09 PM 41.7636 -103.5222 192° South 296 341 25,000  Level Denver Center
Fri 03:07:11 PM 41.6722 -103.5294 183° South 295 339 25,000  Level Denver Center
Fri 03:08:13 PM 41.5936 -103.5350 183° South 296 341 25,000  Level Denver Center
Fri 03:09:15 PM 41.5028 -103.5428 184° South 293 337 25,000  Level Denver Center
Fri 03:10:17 PM 41.4236 -103.5586 189° South 297 342 25,000 -242 Level Denver Center
Fri 03:11:19 PM 41.3328 -103.5736 187° South 295 339 24,500 -1,008 Descending Denver Center
Fri 03:12:22 PM 41.2550 -103.5900 189° South 295 339 22,900 -1,824 Descending Denver Center
Fri 03:13:24 PM 41.1642 -103.6075 188° South 295 339 20,700 -1,935 Descending Denver Center
Fri 03:14:26 PM 41.0869 -103.6208 187° South 292 336 18,900 -1,597 Descending Denver Center
Fri 03:15:28 PM 40.9989 -103.6361 187° South 286 329 17,400 -1,258 Descending Denver Center
Fri 03:16:30 PM 40.9269 -103.6478 187° South 285 328 16,300 -726 Descending Denver Center
Fri 03:17:32 PM 40.8458 -103.6586 186° South 291 335 15,900 -194 Descending Denver Center
Fri 03:18:34 PM 40.7669 -103.6697 186° South 286 329 15,900 48 Level Denver Center
Fri 03:19:36 PM 40.6694 -103.6836 186° South 292 336 16,000 48 Climbing Denver Center
Fri 03:20:38 PM 40.5914 -103.6967 187° South 287 330 16,000 -97 Level Denver Center
Fri 03:21:40 PM 40.5222 -103.7419 206° Southwest 284 327 15,800 -581 Descending Denver Center
Fri 03:22:42 PM 40.4669 -103.8122 224° Southwest 277 319 14,800 -1,258 Descending Denver Center
Fri 03:23:44 PM 40.4083 -103.8983 228° Southwest 281 323 13,200 -816 Descending Denver Center
Fri 03:24:47 PM 40.3656 -103.9753 234° Southwest 259 298 13,100 -96 Descending Denver Center
Fri 03:25:49 PM 40.3244 -104.0550 236° Southwest 248 285 13,000  Descending Denver Center
Fri 03:26:51 PM 40.2917 -104.1369 242° Southwest 255 293 13,100 -353 Climbing Denver Center
Fri 03:28:05 PM 40.2564 -104.2225 242° Southwest 250 288 12,200 -485 Descending Denver Center
Fri 03:29:07 PM 40.2186 -104.3206 243° Southwest 247 284 12,000 -484 Descending Denver Center
Fri 03:30:09 PM 40.1869 -104.4031 243° Southwest 253 291 11,200 -1,104 Descending Denver Center
Fri 03:31:12 PM 40.1547 -104.4953 245° Southwest 254 292 9,700 -1,398 Descending Denver Center
Fri 03:32:22 PM 40.1167 -104.5833 241° Southwest 248 285 8,100 -1,246 Descending Denver TRACON
Fri 03:33:22 PM 40.0500 -104.6333 210° Southwest 240 276 7,000 -500 Descending Denver TRACON
Fri 03:34:22 PM 40.0000 -104.6667 207° Southwest 220 253 7,100 -254 Climbing Denver TRACON
Fri 03:35:20 PM 39.9481 -104.6869 197° South 202 232 6,500 -650 Descending Denver Center
Fri 03:36:22 PM 39.9061 -104.6872 180° South 152 175 5,800 -677 Descending Denver Center
Fri 03:38:00 PM 39.8617 -104.6732 229° Southwest  Level Estimated
Fri 03:45:00 PM 39.8617 -104.6732 229° Southwest  Level Estimated
Fri 03:46:00 PM 39.8617 -104.6732 229° Southwest  Level Estimated
Fri 03:47:00 PM 39.8617 -104.6732 229° Southwest  Level Estimated

Login

Don't have an account? Register now (free) for customized features, flight alerts, and more!